createdAt,value
2018-02-07T00:02:23.920Z,4.26
2018-02-07T00:04:51.406Z,4.23
2018-02-07T00:07:18.910Z,4.18
2018-02-07T00:09:46.411Z,4.21
2018-02-07T00:12:13.940Z,4.24
2018-02-07T00:14:41.426Z,4.25
2018-02-07T00:17:08.959Z,4.26
2018-02-07T00:19:36.449Z,4.24
2018-02-07T00:22:03.977Z,4.25
2018-02-07T00:24:31.472Z,4.17
2018-02-07T00:26:58.963Z,4.13
2018-02-07T00:29:26.609Z,4.13
2018-02-07T00:31:54.143Z,4.08
2018-02-07T00:34:21.742Z,4.07
2018-02-07T00:36:49.257Z,4.09
2018-02-07T00:39:16.746Z,4.09
2018-02-07T00:41:44.250Z,4.10
2018-02-07T00:44:11.852Z,4.01
2018-02-07T00:46:39.453Z,4.01
2018-02-07T00:49:07.057Z,4.00
2018-02-07T00:51:34.740Z,4.01
2018-02-07T00:54:02.279Z,4.02
2018-02-07T00:56:29.913Z,4.05
2018-02-07T00:58:57.472Z,4.09
2018-02-07T01:01:24.986Z,4.06
2018-02-07T01:03:52.460Z,3.93
2018-02-07T01:06:20.014Z,3.94
2018-02-07T01:08:47.570Z,3.96
2018-02-07T01:11:15.041Z,3.99
2018-02-07T01:13:42.573Z,4.00
2018-02-07T01:16:10.050Z,3.98
2018-02-07T01:18:37.591Z,3.98
2018-02-07T01:21:05.152Z,3.93
2018-02-07T01:23:32.669Z,3.90
2018-02-07T01:26:00.231Z,3.86
2018-02-07T01:28:27.732Z,3.86
2018-02-07T01:30:55.244Z,3.84
2018-02-07T01:33:22.722Z,3.83
2018-02-07T01:35:50.255Z,3.84
2018-02-07T01:38:17.724Z,3.81
2018-02-07T01:40:45.269Z,3.79
2018-02-07T01:43:12.756Z,3.77
2018-02-07T01:45:40.242Z,3.77
2018-02-07T01:48:07.761Z,3.76
2018-02-07T01:50:35.236Z,3.73
2018-02-07T01:53:02.812Z,3.74
2018-02-07T01:55:30.336Z,3.72
2018-02-07T01:57:57.849Z,3.71
2018-02-07T02:00:25.326Z,3.65
2018-02-07T02:02:52.867Z,3.68
2018-02-07T02:05:20.605Z,3.68
2018-02-07T02:07:48.099Z,3.67
2018-02-07T02:10:15.687Z,3.65
2018-02-07T02:12:43.282Z,3.63
2018-02-07T02:15:10.777Z,3.64
2018-02-07T02:17:38.281Z,3.61
2018-02-07T02:20:05.787Z,3.60
2018-02-07T02:22:33.272Z,3.54
2018-02-07T02:25:00.786Z,3.46
2018-02-07T02:27:28.302Z,3.46
2018-02-07T02:29:55.791Z,3.48
2018-02-07T02:32:23.305Z,3.49
2018-02-07T02:34:50.806Z,3.48
2018-02-07T02:37:18.383Z,3.48
2018-02-07T02:39:45.888Z,3.43
2018-02-07T02:42:13.369Z,3.39
2018-02-07T02:44:40.871Z,3.32
2018-02-07T02:47:08.351Z,3.32
2018-02-07T02:49:35.869Z,3.35
2018-02-07T02:52:04.069Z,3.30
2018-02-07T02:54:31.566Z,3.28
2018-02-07T02:56:59.124Z,3.29
2018-02-07T02:59:26.613Z,3.30
2018-02-07T03:01:54.347Z,3.27
2018-02-07T03:04:21.858Z,3.28
2018-02-07T03:06:49.388Z,3.29
2018-02-07T03:09:16.865Z,3.33
2018-02-07T03:11:44.371Z,3.34
2018-02-07T03:14:11.863Z,3.32
2018-02-07T03:16:39.348Z,3.24
2018-02-07T03:19:06.842Z,3.21
2018-02-07T03:21:34.314Z,3.20
2018-02-07T03:24:01.850Z,3.22
2018-02-07T03:26:29.357Z,3.23
2018-02-07T03:28:56.837Z,3.19
2018-02-07T03:31:24.351Z,3.15
2018-02-07T03:33:51.833Z,3.12
2018-02-07T03:36:19.345Z,3.12
2018-02-07T03:38:47.595Z,3.11
2018-02-07T03:41:15.080Z,3.07
2018-02-07T03:43:42.613Z,3.12
2018-02-07T03:46:10.134Z,3.14
2018-02-07T03:48:37.653Z,3.15
2018-02-07T03:51:05.148Z,3.14
2018-02-07T03:53:32.738Z,3.12
2018-02-07T03:56:00.294Z,3.11
2018-02-07T03:58:27.813Z,3.12
2018-02-07T04:00:55.337Z,3.11
2018-02-07T04:03:22.974Z,3.06
2018-02-07T04:05:50.499Z,3.09
2018-02-07T04:08:17.980Z,3.07
2018-02-07T04:10:45.585Z,3.07
2018-02-07T04:13:13.136Z,3.06
2018-02-07T04:15:40.612Z,3.10
2018-02-07T04:18:08.089Z,3.05
2018-02-07T04:20:35.590Z,3.02
2018-02-07T04:23:03.149Z,3.03
2018-02-07T04:25:30.628Z,3.01
2018-02-07T04:27:58.124Z,3.05
2018-02-07T04:30:25.687Z,3.07
2018-02-07T04:32:53.203Z,3.06
2018-02-07T04:35:20.715Z,3.03
2018-02-07T04:37:48.206Z,3.01
2018-02-07T04:40:15.726Z,3.02
2018-02-07T04:42:43.220Z,2.91
2018-02-07T04:45:10.741Z,2.94
2018-02-07T04:47:38.222Z,2.93
2018-02-07T04:50:05.699Z,2.90
2018-02-07T04:52:33.196Z,2.83
2018-02-07T04:55:00.694Z,2.76
2018-02-07T04:57:28.217Z,2.74
2018-02-07T04:59:55.707Z,2.69
2018-02-07T05:02:23.291Z,2.68
2018-02-07T05:04:50.774Z,2.67
2018-02-07T05:07:18.401Z,2.67
2018-02-07T05:09:46.136Z,2.69
2018-02-07T05:12:13.762Z,2.75
2018-02-07T05:14:41.263Z,2.82
2018-02-07T05:17:08.784Z,2.84
2018-02-07T05:19:36.659Z,2.85
2018-02-07T05:22:04.926Z,2.93
2018-02-07T05:24:32.506Z,2.93
2018-02-07T05:27:00.236Z,2.94
2018-02-07T05:29:27.784Z,2.91
2018-02-07T05:31:55.320Z,2.93
2018-02-07T05:34:22.927Z,2.95
2018-02-07T05:36:50.512Z,2.85
2018-02-07T05:39:18.030Z,2.84
2018-02-07T05:41:45.518Z,2.88
2018-02-07T05:44:13.032Z,2.93
2018-02-07T05:46:40.534Z,2.94
2018-02-07T05:49:08.040Z,2.96
2018-02-07T05:51:35.551Z,3.01
2018-02-07T05:54:03.056Z,3.07
2018-02-07T05:56:30.549Z,3.10
2018-02-07T05:58:58.047Z,3.07
2018-02-07T06:03:52.469Z,3.13
2018-02-07T06:06:19.966Z,3.09
2018-02-07T06:08:47.471Z,3.10
2018-02-07T06:11:14.980Z,3.11
2018-02-07T06:13:43.213Z,3.15
2018-02-07T06:16:10.726Z,3.18
2018-02-07T06:18:38.240Z,3.23
2018-02-07T06:21:05.721Z,3.23
2018-02-07T06:23:33.222Z,3.25
2018-02-07T06:26:00.703Z,3.31
2018-02-07T06:28:28.245Z,3.34
2018-02-07T06:30:55.785Z,3.35
2018-02-07T06:35:50.151Z,3.37
2018-02-07T06:38:17.645Z,3.40
2018-02-07T06:40:45.722Z,3.41
2018-02-07T06:43:13.218Z,3.41
2018-02-07T06:48:07.521Z,3.45
2018-02-07T06:50:35.642Z,3.48
2018-02-07T06:53:03.148Z,3.44
2018-02-07T06:55:30.690Z,3.48
2018-02-07T06:57:58.239Z,3.45
2018-02-07T07:00:25.767Z,3.45
2018-02-07T07:02:53.368Z,3.22
2018-02-07T07:05:20.916Z,3.39
2018-02-07T07:07:48.414Z,3.39
2018-02-07T07:10:15.939Z,3.35
2018-02-07T07:12:43.435Z,3.40
2018-02-07T07:15:10.957Z,3.27
2018-02-07T07:17:38.438Z,3.39
2018-02-07T07:20:05.953Z,3.45
2018-02-07T07:22:33.449Z,3.49
2018-02-07T07:25:00.930Z,3.55
2018-02-07T07:27:28.459Z,3.58
2018-02-07T07:29:55.948Z,3.60
2018-02-07T07:32:23.565Z,3.60
2018-02-07T07:34:51.098Z,3.67
2018-02-07T07:37:18.604Z,3.67
2018-02-07T07:39:46.101Z,3.68
2018-02-07T07:42:13.687Z,3.62
2018-02-07T07:44:41.204Z,3.65
2018-02-07T07:47:09.295Z,3.74
2018-02-07T07:49:36.825Z,3.76
2018-02-07T07:52:04.779Z,3.86
2018-02-07T07:54:32.262Z,3.91
2018-02-07T07:56:59.795Z,4.03
2018-02-07T07:59:27.310Z,4.09
2018-02-07T08:01:54.824Z,4.19
2018-02-07T08:04:22.368Z,4.24
2018-02-07T08:06:49.910Z,4.28
2018-02-07T08:09:17.470Z,4.41
2018-02-07T08:11:44.972Z,4.55
2018-02-07T08:14:12.588Z,4.69
2018-02-07T08:16:40.074Z,4.64
2018-02-07T08:19:07.591Z,4.77
2018-02-07T08:21:35.083Z,4.72
2018-02-07T08:24:02.629Z,4.93
2018-02-07T08:26:30.130Z,4.99
2018-02-07T08:28:57.655Z,4.99
2018-02-07T08:31:25.184Z,4.90
2018-02-07T08:33:52.729Z,4.85
2018-02-07T08:36:20.232Z,4.77
2018-02-07T08:38:48.575Z,4.79
2018-02-07T08:41:16.116Z,4.91
2018-02-07T08:43:43.675Z,4.80
2018-02-07T08:46:11.182Z,4.88
2018-02-07T08:48:38.669Z,4.88
2018-02-07T08:51:06.234Z,4.97
2018-02-07T08:53:33.747Z,5.01
2018-02-07T08:56:01.320Z,5.13
2018-02-07T08:58:28.856Z,5.15
2018-02-07T09:00:56.399Z,5.17
2018-02-07T09:03:23.891Z,5.10
2018-02-07T09:05:51.375Z,4.93
2018-02-07T09:08:18.890Z,4.89
2018-02-07T09:10:46.402Z,5.07
2018-02-07T09:13:14.016Z,5.32
2018-02-07T09:15:41.534Z,5.49
2018-02-07T09:18:09.123Z,5.52
2018-02-07T09:20:36.711Z,5.63
2018-02-07T09:23:04.305Z,5.60
2018-02-07T09:25:31.851Z,5.68
2018-02-07T09:27:59.462Z,6.06
2018-02-07T09:30:27.096Z,6.18
2018-02-07T09:32:54.669Z,6.26
2018-02-07T09:35:22.234Z,6.28
2018-02-07T09:37:49.740Z,6.34
2018-02-07T09:40:17.295Z,6.38
2018-02-07T09:42:44.782Z,6.51
2018-02-07T09:45:13.034Z,6.41
2018-02-07T09:47:40.580Z,6.19
2018-02-07T09:50:08.126Z,6.31
2018-02-07T09:52:35.686Z,6.37
2018-02-07T09:55:03.181Z,6.56
2018-02-07T09:57:30.732Z,6.57
2018-02-07T09:59:58.231Z,6.58
2018-02-07T10:02:25.804Z,6.47
2018-02-07T10:04:53.719Z,6.51
2018-02-07T10:07:21.216Z,6.44
2018-02-07T10:09:48.727Z,6.30
2018-02-07T10:12:16.206Z,6.09
2018-02-07T10:14:43.723Z,5.76
2018-02-07T10:17:11.219Z,5.47
2018-02-07T10:19:38.768Z,5.72
2018-02-07T10:22:06.272Z,5.94
2018-02-07T10:24:33.796Z,6.12
2018-02-07T10:27:02.050Z,6.31
2018-02-07T10:29:29.575Z,6.27
2018-02-07T10:31:57.148Z,6.30
2018-02-07T10:34:24.626Z,6.32
2018-02-07T10:36:52.271Z,6.28
2018-02-07T10:39:19.778Z,6.31
2018-02-07T10:41:47.303Z,6.22
2018-02-07T10:44:14.791Z,6.24
2018-02-07T10:46:42.440Z,6.35
2018-02-07T10:49:09.978Z,6.52
2018-02-07T10:51:37.491Z,6.70
2018-02-07T10:54:05.003Z,6.75
2018-02-07T10:56:32.504Z,6.70
2018-02-07T10:59:00.022Z,6.80
2018-02-07T11:01:27.527Z,6.95
2018-02-07T11:03:55.036Z,6.95
2018-02-07T11:06:22.558Z,6.52
2018-02-07T11:08:50.050Z,6.55
2018-02-07T11:11:17.562Z,6.76
2018-02-07T11:13:45.065Z,6.60
2018-02-07T11:16:12.550Z,6.63
2018-02-07T11:18:40.078Z,6.74
2018-02-07T11:21:07.579Z,6.40
2018-02-07T11:23:35.065Z,6.18
2018-02-07T11:26:02.575Z,5.98
2018-02-07T11:28:30.099Z,5.97
2018-02-07T11:30:57.633Z,5.90
2018-02-07T11:33:25.140Z,6.12
2018-02-07T11:35:53.236Z,6.37
2018-02-07T11:38:20.731Z,6.57
2018-02-07T11:40:48.248Z,6.59
2018-02-07T11:43:15.879Z,6.65
2018-02-07T11:45:43.507Z,6.58
2018-02-07T11:48:11.165Z,6.42
2018-02-07T11:50:38.665Z,6.27
2018-02-07T11:53:06.202Z,6.37
2018-02-07T11:55:33.699Z,6.46
2018-02-07T11:58:01.209Z,6.64
2018-02-07T12:00:28.815Z,6.69
2018-02-07T12:02:56.313Z,6.72
2018-02-07T12:05:23.903Z,6.81
2018-02-07T12:07:51.925Z,6.60
2018-02-07T12:10:19.510Z,6.72
2018-02-07T12:12:47.012Z,6.78
2018-02-07T12:15:14.569Z,6.91
2018-02-07T12:17:42.210Z,6.87
2018-02-07T12:20:09.747Z,6.98
2018-02-07T12:22:37.406Z,6.87
2018-02-07T12:25:05.074Z,6.83
2018-02-07T12:27:32.562Z,6.96
2018-02-07T12:30:00.077Z,7.03
2018-02-07T12:32:27.674Z,6.88
2018-02-07T12:34:55.186Z,6.88
2018-02-07T12:37:22.767Z,6.82
2018-02-07T12:39:51.176Z,6.47
2018-02-07T12:42:18.710Z,6.24
2018-02-07T12:44:46.194Z,6.25
2018-02-07T12:47:13.728Z,6.55
2018-02-07T12:49:41.239Z,6.72
2018-02-07T12:52:08.734Z,6.93
2018-02-07T12:54:36.256Z,6.99
2018-02-07T12:57:03.761Z,7.07
2018-02-07T12:59:31.311Z,7.18
2018-02-07T13:01:58.917Z,7.42
2018-02-07T13:04:26.432Z,7.10
2018-02-07T13:06:53.989Z,7.17
2018-02-07T13:09:21.529Z,7.28
2018-02-07T13:11:49.061Z,7.27
2018-02-07T13:14:16.596Z,7.21
2018-02-07T13:16:44.117Z,7.22
2018-02-07T13:19:11.610Z,7.17
2018-02-07T13:21:39.100Z,7.09
2018-02-07T13:24:06.621Z,6.96
2018-02-07T13:26:34.107Z,6.82
2018-02-07T13:29:01.624Z,6.76
2018-02-07T13:31:29.171Z,6.84
2018-02-07T13:33:56.699Z,6.78
2018-02-07T13:36:24.208Z,6.68
2018-02-07T13:38:51.696Z,6.61
2018-02-07T13:41:19.414Z,6.59
2018-02-07T13:43:46.928Z,6.54
2018-02-07T13:46:14.596Z,6.63
2018-02-07T13:48:42.221Z,6.76
2018-02-07T13:51:09.813Z,6.75
2018-02-07T13:53:37.443Z,6.58
2018-02-07T13:56:05.027Z,6.75
2018-02-07T13:58:32.585Z,6.88
2018-02-07T14:01:00.122Z,6.97
2018-02-07T14:03:27.684Z,7.01
2018-02-07T14:05:55.177Z,6.97
2018-02-07T14:08:22.710Z,7.02
2018-02-07T14:10:51.792Z,6.84
2018-02-07T14:13:19.370Z,6.87
2018-02-07T14:15:46.968Z,6.77
2018-02-07T14:18:14.498Z,6.49
2018-02-07T14:20:41.991Z,6.52
2018-02-07T14:23:09.533Z,6.67
2018-02-07T14:25:37.077Z,6.39
2018-02-07T14:28:04.602Z,6.42
2018-02-07T14:30:32.109Z,6.48
2018-02-07T14:33:00.209Z,6.60
2018-02-07T14:35:27.770Z,6.56
2018-02-07T14:37:55.263Z,6.61
2018-02-07T14:40:22.855Z,6.59
2018-02-07T14:42:50.342Z,6.66
2018-02-07T14:45:17.949Z,6.70
2018-02-07T14:47:45.600Z,6.67
2018-02-07T14:50:13.091Z,6.26
2018-02-07T14:52:40.674Z,6.34
2018-02-07T14:55:08.176Z,6.28
2018-02-07T14:57:35.681Z,6.27
2018-02-07T15:00:03.200Z,6.12
2018-02-07T15:02:30.754Z,6.03
2018-02-07T15:04:58.317Z,6.22
2018-02-07T15:07:25.832Z,6.36
2018-02-07T15:09:53.445Z,6.33
2018-02-07T15:12:20.970Z,6.43
2018-02-07T15:14:48.481Z,6.45
2018-02-07T15:17:15.988Z,6.44
2018-02-07T15:19:43.559Z,6.49
2018-02-07T15:22:11.102Z,6.54
2018-02-07T15:24:38.619Z,6.50
2018-02-07T15:27:06.110Z,6.38
2018-02-07T15:29:33.728Z,6.20
2018-02-07T15:32:01.218Z,6.21
2018-02-07T15:34:28.734Z,6.11
2018-02-07T15:36:56.252Z,6.20
2018-02-07T15:39:23.885Z,5.96
2018-02-07T15:41:51.586Z,5.87
2018-02-07T15:44:19.111Z,5.88
2018-02-07T15:46:47.567Z,5.86
2018-02-07T15:49:15.049Z,5.64
2018-02-07T15:51:42.774Z,5.69
2018-02-07T15:54:10.435Z,5.64
2018-02-07T15:56:37.981Z,5.69
2018-02-07T15:59:05.618Z,5.76
2018-02-07T16:01:33.185Z,5.77
2018-02-07T16:04:00.720Z,5.87
2018-02-07T16:06:28.334Z,5.91
2018-02-07T16:08:55.947Z,6.00
2018-02-07T16:11:23.615Z,5.98
2018-02-07T16:13:51.160Z,5.89
2018-02-07T16:16:18.762Z,5.69
2018-02-07T16:18:46.303Z,5.47
2018-02-07T16:21:13.819Z,5.42
2018-02-07T16:23:41.329Z,5.43
2018-02-07T16:26:08.933Z,5.38
2018-02-07T16:28:36.503Z,5.28
2018-02-07T16:31:04.012Z,5.30
2018-02-07T16:33:31.550Z,5.16
2018-02-07T16:35:59.060Z,5.29
2018-02-07T16:38:26.596Z,5.34
2018-02-07T16:40:54.090Z,5.30
2018-02-07T16:43:21.614Z,5.30
2018-02-07T16:45:49.183Z,5.26
2018-02-07T16:48:16.720Z,5.12
2018-02-07T16:50:44.206Z,5.18
2018-02-07T16:53:11.748Z,5.26
2018-02-07T16:55:39.263Z,5.33
2018-02-07T16:58:06.778Z,5.37
2018-02-07T17:00:34.418Z,5.51
2018-02-07T17:03:01.948Z,5.39
2018-02-07T17:05:29.473Z,5.46
2018-02-07T17:07:56.971Z,5.44
2018-02-07T17:10:24.536Z,5.49
2018-02-07T17:12:52.105Z,5.30
2018-02-07T17:15:19.593Z,5.39
2018-02-07T17:17:47.140Z,5.44
2018-02-07T17:20:14.627Z,5.33
2018-02-07T17:22:42.265Z,5.34
2018-02-07T17:25:10.372Z,5.19
2018-02-07T17:27:37.878Z,5.10
2018-02-07T17:30:05.510Z,5.19
2018-02-07T17:32:33.014Z,5.17
2018-02-07T17:35:00.610Z,5.04
2018-02-07T17:37:28.132Z,4.99
2018-02-07T17:39:55.798Z,5.05
2018-02-07T17:42:23.411Z,5.16
2018-02-07T17:44:50.927Z,5.29
2018-02-07T17:47:18.439Z,5.37
2018-02-07T17:49:45.957Z,5.44
2018-02-07T17:52:13.499Z,5.47
2018-02-07T17:54:41.061Z,5.49
2018-02-07T17:57:08.582Z,5.53
2018-02-07T17:59:36.070Z,5.64
2018-02-07T18:02:03.959Z,5.67
2018-02-07T18:04:31.484Z,5.76
2018-02-07T18:06:59.027Z,5.76
2018-02-07T18:09:26.580Z,5.79
2018-02-07T18:11:54.135Z,5.80
2018-02-07T18:14:21.649Z,5.78
2018-02-07T18:16:49.200Z,5.77
2018-02-07T18:19:16.715Z,5.72
2018-02-07T18:21:44.231Z,5.69
2018-02-07T18:24:11.728Z,5.64
2018-02-07T18:26:39.237Z,5.53
2018-02-07T18:29:06.756Z,5.53
2018-02-07T18:31:34.252Z,5.59
2018-02-07T18:34:01.847Z,5.61
2018-02-07T18:36:29.408Z,5.74
2018-02-07T18:38:56.988Z,5.66
2018-02-07T18:41:24.516Z,5.71
2018-02-07T18:43:52.015Z,5.72
2018-02-07T18:46:19.561Z,5.73
2018-02-07T18:48:47.086Z,5.69
2018-02-07T18:51:14.637Z,5.66
2018-02-07T18:53:42.155Z,5.65
2018-02-07T18:56:09.673Z,5.65
2018-02-07T18:58:37.171Z,5.65
2018-02-07T19:01:04.709Z,5.64
2018-02-07T19:03:32.252Z,5.64
2018-02-07T19:06:00.198Z,5.50
2018-02-07T19:08:27.764Z,5.52
2018-02-07T19:10:55.783Z,5.65
2018-02-07T19:13:23.688Z,5.63
2018-02-07T19:15:51.207Z,5.57
2018-02-07T19:18:18.745Z,5.63
2018-02-07T19:20:46.652Z,5.66
2018-02-07T19:23:14.233Z,5.66
2018-02-07T19:25:41.786Z,5.73
2018-02-07T19:28:09.326Z,5.69
2018-02-07T19:30:37.545Z,5.77
2018-02-07T19:33:05.060Z,6.08
2018-02-07T19:35:32.623Z,6.07
2018-02-07T19:38:00.188Z,6.03
2018-02-07T19:40:27.741Z,6.01
2018-02-07T19:42:58.147Z,5.93
2018-02-07T19:45:32.510Z,5.95
2018-02-07T19:48:00.213Z,5.97
2018-02-07T19:50:27.863Z,5.96
2018-02-07T19:52:55.418Z,5.84
2018-02-07T19:55:22.952Z,5.82
2018-02-07T19:57:50.516Z,5.73
2018-02-07T20:00:18.015Z,5.80
2018-02-07T20:02:45.882Z,5.87
2018-02-07T20:05:13.833Z,5.84
2018-02-07T20:07:41.338Z,5.91
2018-02-07T20:10:09.073Z,5.95
2018-02-07T20:12:36.636Z,5.91
2018-02-07T20:15:04.172Z,5.87
2018-02-07T20:17:31.694Z,5.83
2018-02-07T20:19:59.216Z,5.82
2018-02-07T20:22:26.756Z,5.72
2018-02-07T20:24:54.259Z,5.55
2018-02-07T20:27:21.857Z,5.46
2018-02-07T20:29:50.228Z,5.41
2018-02-07T20:32:17.802Z,5.44
2018-02-07T20:34:45.449Z,5.59
2018-02-07T20:37:13.001Z,5.59
2018-02-07T20:39:40.588Z,5.64
2018-02-07T20:42:08.218Z,5.61
2018-02-07T20:44:35.732Z,5.62
2018-02-07T20:47:03.229Z,5.70
2018-02-07T20:49:30.749Z,5.69
2018-02-07T20:51:58.236Z,5.70
2018-02-07T20:54:25.775Z,5.74
2018-02-07T20:56:53.317Z,5.72
2018-02-07T20:59:20.861Z,5.78
2018-02-07T21:01:48.376Z,5.76
2018-02-07T21:04:15.975Z,5.77
2018-02-07T21:06:43.520Z,5.65
2018-02-07T21:09:11.033Z,5.65
2018-02-07T21:11:38.576Z,5.64
2018-02-07T21:14:06.170Z,5.68
2018-02-07T21:16:33.670Z,5.67
2018-02-07T21:19:01.203Z,5.74
2018-02-07T21:21:28.701Z,5.70
2018-02-07T21:23:56.229Z,5.70
2018-02-07T21:26:23.834Z,5.64
2018-02-07T21:28:51.398Z,5.64
2018-02-07T21:31:18.990Z,5.66
2018-02-07T21:33:46.561Z,5.67
2018-02-07T21:36:14.216Z,5.74
2018-02-07T21:38:41.776Z,5.78
2018-02-07T21:41:09.349Z,5.77
2018-02-07T21:43:36.834Z,5.78
2018-02-07T21:46:04.322Z,5.80
2018-02-07T21:48:31.833Z,5.82
2018-02-07T21:50:59.341Z,5.78
2018-02-07T21:53:26.879Z,5.69
2018-02-07T21:55:54.364Z,5.69
2018-02-07T21:58:21.875Z,5.62
2018-02-07T22:00:49.367Z,5.65
2018-02-07T22:03:16.877Z,5.66
2018-02-07T22:05:44.375Z,5.67
2018-02-07T22:08:11.864Z,5.70
2018-02-07T22:10:39.388Z,5.72
2018-02-07T22:13:06.911Z,5.72
2018-02-07T22:15:34.424Z,5.71
2018-02-07T22:18:01.937Z,5.65
2018-02-07T22:20:29.464Z,5.57
2018-02-07T22:22:57.697Z,5.59
2018-02-07T22:25:25.205Z,5.55
2018-02-07T22:27:52.715Z,5.63
2018-02-07T22:30:20.340Z,5.64
2018-02-07T22:32:48.256Z,5.69
2018-02-07T22:35:15.791Z,5.70
2018-02-07T22:37:43.276Z,5.71
2018-02-07T22:40:10.800Z,5.74
2018-02-07T22:42:38.341Z,5.77
2018-02-07T22:45:05.883Z,5.79
2018-02-07T22:47:33.395Z,5.81
2018-02-07T22:50:00.889Z,5.79
2018-02-07T22:52:28.494Z,5.80
2018-02-07T22:54:55.967Z,5.80
2018-02-07T22:57:23.651Z,5.77
2018-02-07T22:59:51.186Z,5.80
2018-02-07T23:02:18.848Z,5.79
2018-02-07T23:04:46.471Z,5.84
2018-02-07T23:07:14.089Z,5.87
2018-02-07T23:09:41.605Z,5.86
2018-02-07T23:12:09.314Z,5.84
2018-02-07T23:14:36.820Z,5.81
2018-02-07T23:17:04.314Z,5.80
2018-02-07T23:19:31.817Z,5.80
2018-02-07T23:21:59.662Z,5.86
2018-02-07T23:24:27.213Z,5.85
2018-02-07T23:26:54.801Z,5.87
2018-02-07T23:29:22.319Z,5.78
2018-02-07T23:31:49.807Z,5.75
2018-02-07T23:34:17.418Z,5.75
2018-02-07T23:36:45.152Z,5.79
2018-02-07T23:39:12.667Z,5.77
2018-02-07T23:41:40.312Z,5.80
2018-02-07T23:44:07.857Z,5.83
2018-02-07T23:46:35.482Z,5.81
2018-02-07T23:49:03.008Z,5.80
2018-02-07T23:51:30.641Z,5.77
2018-02-07T23:53:58.162Z,5.78
2018-02-07T23:56:25.699Z,5.80
2018-02-07T23:58:53.258Z,5.82
